Time;durP1;ratioP1;P1;durP2;ratioP2;P2;SDS_P1;SDS_P2;PMS_P1;PMS_P2;Temp;Humidity;BMP_temperature;BMP_pressure;BME280_temperature;BME280_humidity;BME280_pressure;Samples;Min_cycle;Max_cycle;Signal;HPM_P1;HPM_P2
2021/03/16 00:00:18;;;;;;;22.33;3.00;;;;;;;;;;5092661;28;20075;-59
2021/03/16 00:03:02;;;;;;;12.20;2.78;;;;;;;;;;5075475;28;20102;-58
2021/03/16 00:05:33;;;;;;;19.60;3.35;;;;;;;;;;5072330;28;20100;-59
2021/03/16 00:07:58;;;;;;;14.17;2.37;;;;;;;;;;5092600;28;20036;-57
2021/03/16 00:10:24;;;;;;;24.20;3.50;;;;;;;;;;5076157;28;20012;-57
2021/03/16 00:12:49;;;;;;;21.77;3.43;;;;;;;;;;5075443;28;20027;-58
2021/03/16 00:15:15;;;;;;;14.50;2.73;;;;;;;;;;5094058;28;20098;-57
2021/03/16 00:17:41;;;;;;;13.60;2.67;;;;;;;;;;5074267;28;20134;-57
2021/03/16 00:20:07;;;;;;;17.98;2.75;;;;;;;;;;5074118;28;20056;-58
2021/03/16 00:22:32;;;;;;;24.03;2.93;;;;;;;;;;5073855;28;20074;-61
2021/03/16 00:24:57;;;;;;;18.73;3.80;;;;;;;;;;5092205;28;20256;-58
2021/03/16 00:27:22;;;;;;;12.87;2.90;;;;;;;;;;5092584;28;20043;-58
2021/03/16 00:29:48;;;;;;;19.77;3.73;;;;;;;;;;5074836;28;20610;-58
2021/03/16 00:32:13;;;;;;;15.77;3.00;;;;;;;;;;5075313;28;20081;-57
2021/03/16 00:34:38;;;;;;;26.07;3.27;;;;;;;;;;5092534;28;20369;-58
2021/03/16 00:37:04;;;;;;;24.93;4.50;;;;;;;;;;5042040;28;20031;-58
2021/03/16 00:39:29;;;;;;;13.47;2.00;;;;;;;;;;5093526;28;20173;-57
2021/03/16 00:41:55;;;;;;;16.07;2.40;;;;;;;;;;5075026;28;20035;-58
2021/03/16 00:44:20;;;;;;;14.60;2.33;;;;;;;;;;5074784;28;20107;-58
2021/03/16 00:46:46;;;;;;;14.00;3.37;;;;;;;;;;5092706;28;20476;-57
2021/03/16 00:49:11;;;;;;;11.47;2.40;;;;;;;;;;5074734;28;20347;-57
2021/03/16 00:51:37;;;;;;;22.57;2.73;;;;;;;;;;5074413;28;20058;-58
2021/03/16 00:54:02;;;;;;;23.20;2.80;;;;;;;;;;5075153;28;20059;-58
2021/03/16 00:56:27;;;;;;;18.80;2.67;;;;;;;;;;5092772;28;20086;-58
2021/03/16 00:58:53;;;;;;;12.27;1.90;;;;;;;;;;5092155;28;20500;-58
2021/03/16 01:01:18;;;;;;;26.60;2.83;;;;;;;;;;5074434;28;20488;-58
2021/03/16 01:03:43;;;;;;;15.00;2.10;;;;;;;;;;5092114;28;20391;-58
2021/03/16 01:06:09;;;;;;;22.73;3.27;;;;;;;;;;5057974;28;20417;-59
2021/03/16 01:08:34;;;;;;;24.53;3.17;;;;;;;;;;5092337;28;20063;-57
2021/03/16 01:11:00;;;;;;;29.43;3.20;;;;;;;;;;5092900;28;20566;-58
2021/03/16 01:13:26;;;;;;;19.77;2.70;;;;;;;;;;5092826;28;20039;-59
2021/03/16 01:15:51;;;;;;;11.90;2.23;;;;;;;;;;5091888;28;20031;-58
2021/03/16 01:18:17;;;;;;;15.75;2.97;;;;;;;;;;5092132;28;20114;-59
2021/03/16 01:20:42;;;;;;;15.53;2.30;;;;;;;;;;5092133;28;20036;-57
2021/03/16 01:23:09;;;;;;;22.33;3.37;;;;;;;;;;5092554;28;20101;-58
2021/03/16 01:25:34;;;;;;;;;;;;;;;;;;5075339;28;20119;-58
2021/03/16 01:27:59;;;;;;;14.13;1.73;;;;;;;;;;5092058;28;19916;-58
2021/03/16 01:30:25;;;;;;;20.90;3.67;;;;;;;;;;5074449;28;20031;-57
2021/03/16 01:32:50;;;;;;;17.17;2.50;;;;;;;;;;5073399;28;20068;-58
2021/03/16 01:35:16;;;;;;;15.13;3.27;;;;;;;;;;5074199;28;20023;-58
2021/03/16 01:37:42;;;;;;;14.63;2.17;;;;;;;;;;5091316;28;20292;-57
2021/03/16 01:40:15;;;;;;;19.58;3.42;;;;;;;;;;5092299;28;20455;-58
2021/03/16 01:42:41;;;;;;;17.40;2.50;;;;;;;;;;5091390;28;20028;-58
2021/03/16 01:45:08;;;;;;;24.70;2.78;;;;;;;;;;5091852;28;20059;-58
2021/03/16 01:47:33;;;;;;;16.80;2.63;;;;;;;;;;5091852;28;20032;-59
2021/03/16 01:49:59;;;;;;;16.17;2.10;;;;;;;;;;5073207;28;20043;-59
2021/03/16 01:52:24;;;;;;;18.08;2.80;;;;;;;;;;5092023;28;20024;-59
2021/03/16 01:54:50;;;;;;;15.47;3.53;;;;;;;;;;5090712;28;20020;-58
2021/03/16 01:57:16;;;;;;;13.77;2.47;;;;;;;;;;5056930;28;20047;-59
2021/03/16 02:00:00;;;;;;;12.23;2.17;;;;;;;;;;5091203;28;20043;-58
2021/03/16 02:02:44;;;;;;;14.45;2.30;;;;;;;;;;5091024;28;20400;-57
2021/03/16 02:05:28;;;;;;;14.82;1.83;;;;;;;;;;5092041;28;20043;-58
2021/03/16 02:08:31;;;;;;;22.52;2.85;;;;;;;;;;5076572;28;20050;-57
2021/03/16 02:11:18;;;;;;;16.77;2.08;;;;;;;;;;5076578;28;20089;-58
2021/03/16 02:14:20;;;;;;;16.55;1.70;;;;;;;;;;5091353;28;20116;-58
2021/03/16 02:17:10;;;;;;;17.58;3.85;;;;;;;;;;5090965;28;20055;-58
2021/03/16 02:20:02;;;;;;;9.30;2.35;;;;;;;;;;5091192;28;20532;-58
2021/03/16 02:22:47;;;;;;;8.25;1.50;;;;;;;;;;5090911;28;20050;-58
2021/03/16 02:25:50;;;;;;;14.80;2.17;;;;;;;;;;5091469;28;20089;-60
2021/03/16 02:28:34;;;;;;;8.07;1.73;;;;;;;;;;5091661;28;20043;-58
2021/03/16 02:31:18;;;;;;;13.23;1.38;;;;;;;;;;5091638;28;20081;-58
2021/03/16 02:34:03;;;;;;;12.77;2.97;;;;;;;;;;5090583;28;20875;-59
2021/03/16 02:36:48;;;;;;;19.23;3.00;;;;;;;;;;5090822;28;20051;-58
2021/03/16 02:39:32;;;;;;;15.65;2.28;;;;;;;;;;5091674;28;20146;-58
2021/03/16 02:42:16;;;;;;;19.08;2.15;;;;;;;;;;5091532;28;20502;-59
2021/03/16 02:45:02;;;;;;;17.80;2.15;;;;;;;;;;5090915;28;20502;-59
2021/03/16 02:47:46;;;;;;;17.45;1.88;;;;;;;;;;5090878;28;20051;-58
2021/03/16 02:50:30;;;;;;;17.95;2.33;;;;;;;;;;5091509;28;20110;-59
2021/03/16 02:53:15;;;;;;;11.05;2.60;;;;;;;;;;5061996;28;20046;-58
2021/03/16 02:55:59;;;;;;;20.23;3.22;;;;;;;;;;5075518;28;20043;-58
2021/03/16 02:58:45;;;;;;;16.67;2.40;;;;;;;;;;5091008;28;20190;-58
2021/03/16 03:01:29;;;;;;;21.98;3.53;;;;;;;;;;5091120;28;20051;-58
2021/03/16 03:04:14;;;;;;;16.63;3.47;;;;;;;;;;5091173;28;20093;-59
2021/03/16 03:06:59;;;;;;;21.50;2.28;;;;;;;;;;5077238;28;20105;-58
2021/03/16 03:09:44;;;;;;;20.08;3.10;;;;;;;;;;5095147;28;20047;-58
2021/03/16 03:12:28;;;;;;;28.23;3.10;;;;;;;;;;5079735;28;20089;-58
2021/03/16 03:15:12;;;;;;;22.42;2.97;;;;;;;;;;5095160;28;20177;-58
2021/03/16 03:17:56;;;;;;;15.63;3.17;;;;;;;;;;5094214;28;20130;-58
2021/03/16 03:20:40;;;;;;;16.90;2.92;;;;;;;;;;5079568;28;20047;-58
2021/03/16 03:23:31;;;;;;;21.88;2.70;;;;;;;;;;5094816;28;20403;-59
2021/03/16 03:26:20;;;;;;;16.20;3.40;;;;;;;;;;5095011;28;20043;-59
2021/03/16 03:29:07;;;;;;;21.02;2.55;;;;;;;;;;5093886;28;20119;-59
2021/03/16 03:31:51;;;;;;;23.40;3.65;;;;;;;;;;5094066;28;20047;-57
2021/03/16 03:34:36;;;;;;;20.65;3.63;;;;;;;;;;5094365;28;20043;-58
2021/03/16 03:37:23;;;;;;;15.60;4.13;;;;;;;;;;5094619;28;20055;-59
2021/03/16 03:40:08;;;;;;;14.32;2.65;;;;;;;;;;5078453;28;20145;-57
2021/03/16 03:42:54;;;;;;;18.05;4.13;;;;;;;;;;5078460;28;20061;-57
2021/03/16 03:45:39;;;;;;;22.52;3.08;;;;;;;;;;5094494;28;20051;-57
2021/03/16 03:48:25;;;;;;;19.23;3.03;;;;;;;;;;5094051;28;20127;-57
2021/03/16 03:51:09;;;;;;;14.45;2.60;;;;;;;;;;5093758;28;20046;-57
2021/03/16 03:53:53;;;;;;;15.77;3.08;;;;;;;;;;5093810;28;20499;-58
2021/03/16 03:56:38;;;;;;;15.50;3.38;;;;;;;;;;5094114;28;20043;-58
2021/03/16 03:59:23;;;;;;;27.58;3.03;;;;;;;;;;5093904;28;20050;-57
2021/03/16 04:02:07;;;;;;;19.65;3.75;;;;;;;;;;5093144;28;20059;-58
2021/03/16 04:04:52;;;;;;;17.80;3.03;;;;;;;;;;5093907;28;20512;-59
2021/03/16 04:07:36;;;;;;;22.10;4.38;;;;;;;;;;5094083;28;20082;-58
2021/03/16 04:10:21;;;;;;;23.27;2.97;;;;;;;;;;5078636;28;20055;-59
2021/03/16 04:13:05;;;;;;;21.58;3.75;;;;;;;;;;5093344;28;20047;-59
2021/03/16 04:15:49;;;;;;;23.65;3.35;;;;;;;;;;5094187;28;20165;-58
2021/03/16 04:18:33;;;;;;;26.67;3.70;;;;;;;;;;5092722;28;20050;-58
2021/03/16 04:21:17;;;;;;;20.52;2.83;;;;;;;;;;5093167;28;20039;-58
2021/03/16 04:24:02;;;;;;;16.30;3.10;;;;;;;;;;5093185;28;20157;-58
2021/03/16 04:26:46;;;;;;;15.73;2.78;;;;;;;;;;5093800;28;20047;-59
2021/03/16 04:29:30;;;;;;;15.68;2.95;;;;;;;;;;5093211;28;20047;-57
2021/03/16 04:32:13;;;;;;;26.15;4.00;;;;;;;;;;5092766;28;20043;-58
2021/03/16 04:34:58;;;;;;;20.15;3.42;;;;;;;;;;5092679;28;20452;-58
2021/03/16 04:37:42;;;;;;;30.55;3.00;;;;;;;;;;5093064;28;20512;-58
2021/03/16 04:40:26;;;;;;;24.13;4.22;;;;;;;;;;5093207;28;20455;-58
2021/03/16 04:43:11;;;;;;;23.88;4.70;;;;;;;;;;5077266;28;20093;-58
2021/03/16 04:45:54;;;;;;;24.90;3.92;;;;;;;;;;5092972;28;20133;-57
2021/03/16 04:48:39;;;;;;;25.73;3.80;;;;;;;;;;5092991;28;20474;-58
2021/03/16 04:51:24;;;;;;;18.58;4.28;;;;;;;;;;5077517;28;20063;-59
2021/03/16 04:54:08;;;;;;;23.38;3.58;;;;;;;;;;5092586;28;20131;-57
2021/03/16 04:56:52;;;;;;;26.92;4.07;;;;;;;;;;5077240;28;20300;-57
2021/03/16 04:59:36;;;;;;;27.95;5.45;;;;;;;;;;5093121;28;20169;-58
2021/03/16 05:02:20;;;;;;;13.90;2.55;;;;;;;;;;5062228;28;20060;-58
2021/03/16 05:05:04;;;;;;;24.67;4.28;;;;;;;;;;5076751;28;20510;-58
2021/03/16 05:07:48;;;;;;;24.92;3.80;;;;;;;;;;5092638;28;20449;-58
2021/03/16 05:10:32;;;;;;;29.20;3.63;;;;;;;;;;5092499;28;20043;-59
2021/03/16 05:13:16;;;;;;;27.00;3.95;;;;;;;;;;5091893;28;20067;-58
2021/03/16 05:16:01;;;;;;;23.25;3.10;;;;;;;;;;5091824;28;20552;-58
2021/03/16 05:18:45;;;;;;;21.10;3.83;;;;;;;;;;5092203;28;20059;-58
2021/03/16 05:21:29;;;;;;;25.77;4.30;;;;;;;;;;5090888;28;20169;-58
2021/03/16 05:24:13;;;;;;;40.92;6.78;;;;;;;;;;5091896;28;20601;-59
2021/03/16 05:26:57;;;;;;;19.77;3.00;;;;;;;;;;5092648;28;20173;-59
2021/03/16 05:29:41;;;;;;;28.08;3.75;;;;;;;;;;5076962;28;20043;-59
2021/03/16 05:32:25;;;;;;;20.15;3.90;;;;;;;;;;5092024;28;20182;-59
2021/03/16 05:35:09;;;;;;;24.77;3.83;;;;;;;;;;5092225;28;20042;-59
2021/03/16 05:37:54;;;;;;;21.95;3.60;;;;;;;;;;5092906;28;20055;-59
2021/03/16 05:40:38;;;;;;;33.67;4.43;;;;;;;;;;5092952;28;20043;-59
2021/03/16 05:43:21;;;;;;;30.77;4.65;;;;;;;;;;5076493;28;20522;-59
2021/03/16 05:46:05;;;;;;;22.52;3.25;;;;;;;;;;5062095;28;20444;-59
2021/03/16 05:48:51;;;;;;;23.88;4.13;;;;;;;;;;5092410;28;20187;-59
2021/03/16 05:51:36;;;;;;;20.42;3.63;;;;;;;;;;5092718;28;20062;-59
2021/03/16 05:54:19;;;;;;;23.15;4.15;;;;;;;;;;5091654;28;20039;-58
2021/03/16 05:57:06;;;;;;;23.83;5.90;;;;;;;;;;5091720;28;20553;-58
2021/03/16 05:59:51;;;;;;;22.98;3.35;;;;;;;;;;5092159;28;20039;-57
2021/03/16 06:02:36;;;;;;;28.10;4.75;;;;;;;;;;5092021;28;20075;-58
2021/03/16 06:05:20;;;;;;;25.50;3.83;;;;;;;;;;5091434;28;20097;-58
2021/03/16 06:08:04;;;;;;;21.38;4.15;;;;;;;;;;5076757;28;20396;-58
2021/03/16 06:10:49;;;;;;;29.73;4.45;;;;;;;;;;5092095;28;20108;-58
2021/03/16 06:13:33;;;;;;;24.05;3.75;;;;;;;;;;5076384;28;20606;-58
2021/03/16 06:16:17;;;;;;;39.25;5.15;;;;;;;;;;5091152;28;20042;-58
2021/03/16 06:19:01;;;;;;;30.70;4.22;;;;;;;;;;5091390;28;20241;-58
2021/03/16 06:21:56;;;;;;;29.95;5.75;;;;;;;;;;5091741;28;20156;-58
2021/03/16 06:24:44;;;;;;;20.08;3.30;;;;;;;;;;5091710;28;20039;-58
2021/03/16 06:27:28;;;;;;;30.60;5.68;;;;;;;;;;5091124;28;20086;-58
2021/03/16 06:30:12;;;;;;;26.23;3.70;;;;;;;;;;5090626;28;20094;-58
2021/03/16 06:32:57;;;;;;;20.95;4.68;;;;;;;;;;5090928;28;20042;-59
2021/03/16 06:35:40;;;;;;;19.10;3.13;;;;;;;;;;5091527;28;20047;-58
2021/03/16 06:38:25;;;;;;;39.88;5.55;;;;;;;;;;5090400;28;20051;-58
2021/03/16 06:41:11;;;;;;;27.73;3.72;;;;;;;;;;5091491;28;20051;-57
2021/03/16 06:43:56;;;;;;;31.27;3.63;;;;;;;;;;5095778;28;20554;-58
2021/03/16 06:46:40;;;;;;;25.65;3.47;;;;;;;;;;5095183;28;20127;-58
2021/03/16 06:49:25;;;;;;;21.63;4.85;;;;;;;;;;5094593;28;20131;-58
2021/03/16 06:52:12;;;;;;;22.83;4.43;;;;;;;;;;5095406;28;20038;-57
2021/03/16 06:54:55;;;;;;;21.77;3.33;;;;;;;;;;5095146;28;20565;-58
2021/03/16 06:57:39;;;;;;;24.23;3.53;;;;;;;;;;5095128;28;20173;-58
2021/03/16 07:00:24;;;;;;;21.48;3.28;;;;;;;;;;5094404;28;20435;-58
2021/03/16 07:03:14;;;;;;;29.80;4.15;;;;;;;;;;5076592;28;20101;-59
2021/03/16 07:06:15;;;;;;;32.75;3.30;;;;;;;;;;5094874;28;20127;-58
2021/03/16 07:08:59;;;;;;;21.73;3.47;;;;;;;;;;5074973;28;20097;-58
2021/03/16 07:11:46;;;;;;;16.70;3.30;;;;;;;;;;5088877;28;20062;-59
2021/03/16 07:14:31;;;;;;;22.38;3.47;;;;;;;;;;5094496;28;20119;-57
2021/03/16 07:17:16;;;;;;;22.77;3.25;;;;;;;;;;5093453;28;20047;-58
2021/03/16 07:20:03;;;;;;;28.73;6.15;;;;;;;;;;5094634;28;20161;-59
2021/03/16 07:22:51;;;;;;;23.55;4.25;;;;;;;;;;5094530;28;20183;-58
2021/03/16 07:25:35;;;;;;;20.65;5.53;;;;;;;;;;5093714;28;20039;-59
2021/03/16 07:28:19;;;;;;;20.73;3.95;;;;;;;;;;5093798;28;20407;-58
2021/03/16 07:31:04;;;;;;;29.05;5.22;;;;;;;;;;5094422;28;20039;-59
2021/03/16 07:33:48;;;;;;;24.77;3.83;;;;;;;;;;5094093;28;20093;-59
2021/03/16 07:36:33;;;;;;;31.33;6.10;;;;;;;;;;5093576;28;20174;-57
2021/03/16 07:39:20;;;;;;;33.83;5.13;;;;;;;;;;5093634;28;20479;-58
2021/03/16 07:42:06;;;;;;;32.67;3.65;;;;;;;;;;5090701;28;20527;-59
2021/03/16 07:44:50;;;;;;;31.38;3.42;;;;;;;;;;5093686;28;20063;-58
2021/03/16 07:47:35;;;;;;;26.08;4.03;;;;;;;;;;5089808;28;20774;-58
2021/03/16 07:50:29;;;;;;;19.50;3.90;;;;;;;;;;5093804;28;20043;-58
2021/03/16 07:53:26;;;;;;;21.10;3.38;;;;;;;;;;5093099;28;20527;-58
2021/03/16 07:56:12;;;;;;;17.80;3.50;;;;;;;;;;5094178;28;20120;-58
2021/03/16 07:58:56;;;;;;;19.77;3.78;;;;;;;;;;5093357;28;20165;-58
2021/03/16 08:01:49;;;;;;;16.77;4.00;;;;;;;;;;5093042;28;20062;-57
2021/03/16 08:04:34;;;;;;;26.42;5.07;;;;;;;;;;5092566;28;20089;-58
2021/03/16 08:07:20;;;;;;;16.75;3.95;;;;;;;;;;5091075;28;20043;-56
2021/03/16 08:10:04;;;;;;;24.80;3.28;;;;;;;;;;5092525;28;20044;-57
2021/03/16 08:12:57;;;;;;;19.67;4.00;;;;;;;;;;5092242;28;20190;-57
2021/03/16 08:15:49;;;;;;;28.17;2.92;;;;;;;;;;5092105;28;20085;-57
2021/03/16 08:18:34;;;;;;;21.30;3.47;;;;;;;;;;5090647;28;20055;-58
2021/03/16 08:21:18;;;;;;;20.73;3.58;;;;;;;;;;5092932;28;20078;-57
2021/03/16 08:24:07;;;;;;;19.35;4.65;;;;;;;;;;5093167;28;20402;-56
2021/03/16 08:26:52;;;;;;;18.25;4.10;;;;;;;;;;5092758;28;20059;-57
2021/03/16 08:29:35;;;;;;;20.98;3.95;;;;;;;;;;5092619;28;20121;-58
2021/03/16 08:32:20;;;;;;;23.00;4.68;;;;;;;;;;5092052;28;20043;-58
2021/03/16 08:35:04;;;;;;;16.13;3.08;;;;;;;;;;5093100;28;20105;-58
2021/03/16 08:37:50;;;;;;;21.80;4.82;;;;;;;;;;5093137;28;20097;-57
2021/03/16 08:40:34;;;;;;;29.60;3.70;;;;;;;;;;5091444;28;20032;-57
2021/03/16 08:43:21;;;;;;;20.73;4.70;;;;;;;;;;5089326;28;20524;-58
2021/03/16 08:46:04;;;;;;;24.77;3.88;;;;;;;;;;5093000;28;20502;-58
2021/03/16 08:48:48;;;;;;;13.98;3.60;;;;;;;;;;5077684;28;20058;-58
2021/03/16 08:51:33;;;;;;;21.35;3.22;;;;;;;;;;5092378;28;20059;-58
2021/03/16 08:54:24;;;;;;;22.75;4.28;;;;;;;;;;5092925;28;20055;-58
2021/03/16 08:57:08;;;;;;;19.98;4.10;;;;;;;;;;5092328;28;20058;-58
2021/03/16 08:59:53;;;;;;;19.73;3.90;;;;;;;;;;5091972;28;20043;-58
2021/03/16 09:02:39;;;;;;;21.30;4.25;;;;;;;;;;5072194;28;20644;-58
2021/03/16 09:05:26;;;;;;;16.95;4.15;;;;;;;;;;5071793;28;20412;-58
2021/03/16 09:08:10;;;;;;;24.35;4.15;;;;;;;;;;5072863;28;20523;-58
2021/03/16 09:10:54;;;;;;;19.02;3.60;;;;;;;;;;5071978;28;20035;-58
2021/03/16 09:13:38;;;;;;;25.20;4.38;;;;;;;;;;5089520;28;20077;-57
2021/03/16 09:16:22;;;;;;;17.93;3.90;;;;;;;;;;5093012;28;20089;-58
2021/03/16 09:19:07;;;;;;;21.93;4.80;;;;;;;;;;5092100;28;20291;-59
2021/03/16 09:21:52;;;;;;;17.03;4.20;;;;;;;;;;5092171;28;20267;-58
2021/03/16 09:24:36;;;;;;;27.73;5.40;;;;;;;;;;5088916;28;20280;-58
2021/03/16 09:27:20;;;;;;;12.90;4.00;;;;;;;;;;5090393;28;20253;-58
2021/03/16 09:30:04;;;;;;;23.33;4.37;;;;;;;;;;5089151;28;20770;-58
2021/03/16 09:32:48;;;;;;;20.50;3.20;;;;;;;;;;5088874;28;20662;-58
2021/03/16 09:35:32;;;;;;;17.50;3.93;;;;;;;;;;5090697;28;20256;-57
2021/03/16 09:38:17;;;;;;;16.77;3.07;;;;;;;;;;5089768;28;20785;-58
2021/03/16 09:40:46;;;;;;;26.55;3.85;;;;;;;;;;5090999;28;20276;-57
2021/03/16 09:43:22;;;;;;;14.27;1.90;;;;;;;;;;5070994;28;20052;-58
2021/03/16 09:45:47;;;;;;;;;;;;;;;;;;5073331;28;20028;-58
2021/03/16 09:48:16;;;;;;;7.97;1.90;;;;;;;;;;5091459;28;20252;-59
2021/03/16 09:50:44;;;;;;;11.77;2.03;;;;;;;;;;5072394;28;20019;-58
2021/03/16 09:53:11;;;;;;;9.70;2.17;;;;;;;;;;5091679;28;20055;-58
2021/03/16 09:55:37;;;;;;;10.35;2.25;;;;;;;;;;5072108;28;20122;-58
2021/03/16 09:58:03;;;;;;;9.37;2.47;;;;;;;;;;5090834;28;20036;-57
2021/03/16 10:00:29;;;;;;;6.18;1.60;;;;;;;;;;5090524;28;20063;-61
2021/03/16 10:03:01;;;;;;;9.57;1.70;;;;;;;;;;5053175;28;20465;-57
2021/03/16 10:05:27;;;;;;;9.75;2.75;;;;;;;;;;5049966;28;20555;-57
2021/03/16 10:07:52;;;;;;;6.45;1.83;;;;;;;;;;5051131;28;20076;-59
2021/03/16 10:10:25;;;;;;;11.30;1.92;;;;;;;;;;5050118;28;20037;-57
2021/03/16 10:12:50;;;;;;;9.63;2.15;;;;;;;;;;5048777;28;20043;-59
2021/03/16 10:15:20;;;;;;;9.00;2.20;;;;;;;;;;5051581;28;20116;-58
2021/03/16 10:17:46;;;;;;;11.75;2.20;;;;;;;;;;5050240;28;20090;-58
2021/03/16 10:20:11;;;;;;;8.90;1.83;;;;;;;;;;5050997;28;20026;-58
2021/03/16 10:22:37;;;;;;;10.18;1.85;;;;;;;;;;5050698;28;20052;-57
2021/03/16 10:25:03;;;;;;;13.10;1.77;;;;;;;;;;5050719;28;20032;-57
2021/03/16 10:27:29;;;;;;;;;;;;;;;;;;5051010;28;20051;-58
2021/03/16 10:29:54;;;;;;;11.80;2.13;;;;;;;;;;5049624;28;19928;-57
2021/03/16 10:32:20;;;;;;;9.73;1.85;;;;;;;;;;5049526;28;20025;-58
2021/03/16 10:34:45;;;;;;;10.30;2.83;;;;;;;;;;5049137;28;20037;-59
2021/03/16 10:37:21;;;;;;;8.60;1.90;;;;;;;;;;5051174;28;20476;-58
2021/03/16 10:39:46;;;;;;;8.95;2.10;;;;;;;;;;5048997;28;20119;-57
2021/03/16 10:42:12;;;;;;;15.23;2.40;;;;;;;;;;5051207;28;20483;-58
2021/03/16 10:44:37;;;;;;;8.20;2.42;;;;;;;;;;5049937;28;20036;-57
2021/03/16 10:47:03;;;;;;;18.08;1.90;;;;;;;;;;5051164;28;20047;-57
2021/03/16 10:49:28;;;;;;;4.13;1.50;;;;;;;;;;5033032;28;20188;-57
2021/03/16 10:51:53;;;;;;;6.03;1.33;;;;;;;;;;5050421;28;20029;-58
2021/03/16 10:54:19;;;;;;;4.63;1.40;;;;;;;;;;5051016;28;20060;-57
2021/03/16 10:56:44;;;;;;;9.97;2.17;;;;;;;;;;5050230;28;20460;-58
2021/03/16 10:59:09;;;;;;;5.47;1.50;;;;;;;;;;5032962;28;20029;-58
2021/03/16 11:01:35;;;;;;;8.97;1.57;;;;;;;;;;5061249;28;20062;-60
2021/03/16 11:04:00;;;;;;;11.97;2.17;;;;;;;;;;5072859;28;20164;-57
2021/03/16 11:06:25;;;;;;;4.37;1.30;;;;;;;;;;5090971;28;20390;-58
2021/03/16 11:08:51;;;;;;;9.13;1.40;;;;;;;;;;5071988;28;20599;-57
2021/03/16 11:11:16;;;;;;;5.13;1.50;;;;;;;;;;5090491;28;20489;-57
2021/03/16 11:13:41;;;;;;;4.90;1.40;;;;;;;;;;5090221;28;20020;-58
2021/03/16 11:16:07;;;;;;;6.60;1.37;;;;;;;;;;5091184;28;20028;-57
2021/03/16 11:18:33;;;;;;;7.60;1.40;;;;;;;;;;5073653;28;20534;-57
2021/03/16 11:20:58;;;;;;;6.10;1.58;;;;;;;;;;5091990;28;20113;-58
2021/03/16 11:23:23;;;;;;;5.23;1.50;;;;;;;;;;5091354;28;20039;-57
2021/03/16 11:25:49;;;;;;;6.47;1.13;;;;;;;;;;5072182;28;20020;-58
2021/03/16 11:28:14;;;;;;;5.80;1.23;;;;;;;;;;5073233;28;20043;-58
2021/03/16 11:30:39;;;;;;;4.87;1.00;;;;;;;;;;5076078;28;20020;-58
2021/03/16 11:33:05;;;;;;;5.07;1.17;;;;;;;;;;5105849;28;20058;-58
2021/03/16 11:35:49;;;;;;;4.63;1.20;;;;;;;;;;5090123;28;20090;-59
2021/03/16 11:38:33;;;;;;;5.07;1.00;;;;;;;;;;5098490;28;20300;-59
2021/03/16 11:41:17;;;;;;;11.63;1.47;;;;;;;;;;5094768;28;20302;-58
2021/03/16 11:44:02;;;;;;;1.33;0.80;;;;;;;;;;5093758;28;20322;-58
2021/03/16 11:46:46;;;;;;;3.80;1.00;;;;;;;;;;5093641;28;20739;-58
2021/03/16 11:49:30;;;;;;;4.07;0.80;;;;;;;;;;5074157;28;20264;-57
2021/03/16 11:52:14;;;;;;;4.33;0.77;;;;;;;;;;5073664;28;20280;-60
2021/03/16 11:54:58;;;;;;;5.10;1.50;;;;;;;;;;5073092;28;20260;-59
2021/03/16 11:57:41;;;;;;;5.10;2.50;;;;;;;;;;5073749;28;20369;-59
2021/03/16 12:00:26;;;;;;;3.50;1.10;;;;;;;;;;5094209;28;20362;-58
2021/03/16 12:03:10;;;;;;;7.40;1.60;;;;;;;;;;5093450;28;20338;-57
2021/03/16 12:05:53;;;;;;;4.83;1.20;;;;;;;;;;5077983;28;20373;-58
2021/03/16 12:08:38;;;;;;;8.83;1.77;;;;;;;;;;5093449;28;20418;-57
2021/03/16 12:11:22;;;;;;;10.60;1.63;;;;;;;;;;5081217;28;20612;-58
2021/03/16 12:14:06;;;;;;;6.30;1.53;;;;;;;;;;5093958;28;20758;-59
2021/03/16 12:16:50;;;;;;;4.93;1.30;;;;;;;;;;5093037;28;20758;-58
2021/03/16 12:19:33;;;;;;;7.27;2.20;;;;;;;;;;5093967;28;20259;-58
2021/03/16 12:22:17;;;;;;;8.43;1.43;;;;;;;;;;5093480;28;20275;-58
2021/03/16 12:25:03;;;;;;;9.07;2.67;;;;;;;;;;5092928;28;20251;-57
2021/03/16 12:27:47;;;;;;;10.60;2.27;;;;;;;;;;5092371;28;20255;-58
2021/03/16 12:30:32;;;;;;;6.17;1.50;;;;;;;;;;5093526;28;20252;-57
2021/03/16 12:33:20;;;;;;;12.63;2.03;;;;;;;;;;5093664;28;20308;-56
2021/03/16 12:36:04;;;;;;;10.97;1.47;;;;;;;;;;5091905;28;20328;-58
2021/03/16 12:38:48;;;;;;;5.83;1.60;;;;;;;;;;5091459;28;20299;-57
2021/03/16 12:41:33;;;;;;;7.13;1.60;;;;;;;;;;5092687;28;20800;-57
2021/03/16 12:44:17;;;;;;;5.38;1.50;;;;;;;;;;5093402;28;20377;-58
2021/03/16 12:47:04;;;;;;;6.00;1.80;;;;;;;;;;5092726;28;20043;-56
2021/03/16 12:49:47;;;;;;;4.82;1.30;;;;;;;;;;5092518;28;20035;-57
2021/03/16 12:52:31;;;;;;;5.63;1.75;;;;;;;;;;5093036;28;20090;-55
2021/03/16 12:55:15;;;;;;;14.20;1.85;;;;;;;;;;5091704;28;20451;-57
2021/03/16 12:57:59;;;;;;;9.25;1.70;;;;;;;;;;5091346;28;20051;-56
2021/03/16 13:00:43;;;;;;;12.77;2.00;;;;;;;;;;5092838;28;20047;-58
2021/03/16 13:03:27;;;;;;;7.00;2.10;;;;;;;;;;5093289;28;20128;-57
2021/03/16 13:06:11;;;;;;;8.48;1.92;;;;;;;;;;5093185;28;20455;-58
2021/03/16 13:08:55;;;;;;;9.65;2.15;;;;;;;;;;5091582;28;20157;-57
2021/03/16 13:11:39;;;;;;;5.78;1.98;;;;;;;;;;5092475;28;20051;-57
2021/03/16 13:14:23;;;;;;;6.25;1.80;;;;;;;;;;5092739;28;20043;-57
2021/03/16 13:17:07;;;;;;;5.13;2.40;;;;;;;;;;5092117;28;20506;-58
2021/03/16 13:19:51;;;;;;;6.75;1.98;;;;;;;;;;5092581;28;20499;-57
2021/03/16 13:22:35;;;;;;;3.95;1.63;;;;;;;;;;5093286;28;20075;-58
2021/03/16 13:25:19;;;;;;;7.82;3.30;;;;;;;;;;5091576;28;20058;-58
2021/03/16 13:28:03;;;;;;;9.65;2.95;;;;;;;;;;5092397;28;20058;-57
2021/03/16 13:30:47;;;;;;;5.70;2.20;;;;;;;;;;5093007;28;20043;-58
2021/03/16 13:33:31;;;;;;;7.35;3.20;;;;;;;;;;5093125;28;20043;-58
2021/03/16 13:36:15;;;;;;;10.52;1.98;;;;;;;;;;5092912;28;20221;-58
2021/03/16 13:38:59;;;;;;;8.52;2.00;;;;;;;;;;5092005;28;20450;-58
2021/03/16 13:41:43;;;;;;;7.53;2.60;;;;;;;;;;5091041;28;20487;-58
2021/03/16 13:44:27;;;;;;;12.98;2.10;;;;;;;;;;5092891;28;20093;-60
2021/03/16 13:47:11;;;;;;;5.22;2.10;;;;;;;;;;5089947;28;20042;-57
2021/03/16 13:49:55;;;;;;;12.43;3.25;;;;;;;;;;5092058;28;20082;-59
2021/03/16 13:52:39;;;;;;;5.60;2.80;;;;;;;;;;5088635;28;20137;-59
2021/03/16 13:55:23;;;;;;;12.57;3.85;;;;;;;;;;5094371;28;20097;-59
2021/03/16 13:58:07;;;;;;;8.13;2.50;;;;;;;;;;5093332;28;20444;-58
2021/03/16 14:00:50;;;;;;;7.88;3.50;;;;;;;;;;5093392;28;20046;-58
2021/03/16 14:03:34;;;;;;;9.43;2.78;;;;;;;;;;5093165;28;20193;-58
2021/03/16 14:06:18;;;;;;;8.10;2.45;;;;;;;;;;5093495;28;20163;-55
2021/03/16 14:09:04;;;;;;;7.82;2.88;;;;;;;;;;5092512;28;20120;-58
2021/03/16 14:11:48;;;;;;;9.45;3.10;;;;;;;;;;5091325;28;20081;-56
2021/03/16 14:14:32;;;;;;;6.10;2.42;;;;;;;;;;5081017;28;20047;-58
2021/03/16 14:17:16;;;;;;;7.85;3.70;;;;;;;;;;5076539;28;20054;-63
2021/03/16 14:20:00;;;;;;;6.30;2.50;;;;;;;;;;5076419;28;20104;-57
2021/03/16 14:22:48;;;;;;;7.88;3.28;;;;;;;;;;5091622;28;20416;-57
2021/03/16 14:25:33;;;;;;;6.10;2.63;;;;;;;;;;5076037;28;20051;-57
2021/03/16 14:28:17;;;;;;;7.63;2.42;;;;;;;;;;5091803;28;20141;-58
2021/03/16 14:31:01;;;;;;;6.18;2.30;;;;;;;;;;5090122;28;20034;-58
2021/03/16 14:33:45;;;;;;;8.65;2.38;;;;;;;;;;5091208;28;20593;-58
2021/03/16 14:36:29;;;;;;;9.93;2.08;;;;;;;;;;5078304;28;20093;-59
2021/03/16 14:39:12;;;;;;;4.40;1.92;;;;;;;;;;5092081;28;20054;-58
2021/03/16 14:41:56;;;;;;;7.18;2.67;;;;;;;;;;5090914;28;20082;-55
2021/03/16 14:44:40;;;;;;;6.63;2.00;;;;;;;;;;5090692;28;20495;-59
2021/03/16 14:47:24;;;;;;;8.82;2.28;;;;;;;;;;5092899;28;20490;-59
2021/03/16 14:50:08;;;;;;;5.00;2.40;;;;;;;;;;5091912;28;20085;-57
2021/03/16 14:52:52;;;;;;;4.95;2.10;;;;;;;;;;5087987;28;20050;-58
2021/03/16 14:55:36;;;;;;;8.80;2.88;;;;;;;;;;5111254;28;20081;-58
2021/03/16 14:58:20;;;;;;;9.32;3.13;;;;;;;;;;5083608;28;20047;-58
2021/03/16 15:01:04;;;;;;;5.43;2.78;;;;;;;;;;5097189;28;20040;-57
2021/03/16 15:03:48;;;;;;;11.32;4.22;;;;;;;;;;5100116;28;20077;-59
2021/03/16 15:06:32;;;;;;;6.82;3.45;;;;;;;;;;5116025;28;20104;-57
2021/03/16 15:09:16;;;;;;;12.60;3.88;;;;;;;;;;5074200;28;20060;-57
2021/03/16 15:12:00;;;;;;;6.90;3.05;;;;;;;;;;5089450;28;20074;-62
2021/03/16 15:14:44;;;;;;;4.78;3.17;;;;;;;;;;5094214;28;20098;-57
2021/03/16 15:17:28;;;;;;;10.10;3.72;;;;;;;;;;5081069;28;20086;-59
2021/03/16 15:20:12;;;;;;;6.18;3.25;;;;;;;;;;5092363;28;20042;-56
2021/03/16 15:22:55;;;;;;;15.88;4.20;;;;;;;;;;5094351;28;20162;-57
2021/03/16 15:25:39;;;;;;;8.43;3.13;;;;;;;;;;5091914;28;20133;-57
2021/03/16 15:28:23;;;;;;;10.73;3.28;;;;;;;;;;5094412;28;20058;-58
2021/03/16 15:31:07;;;;;;;7.97;2.58;;;;;;;;;;5094444;28;20047;-58
2021/03/16 15:33:51;;;;;;;3.75;2.55;;;;;;;;;;5094619;28;20051;-58
2021/03/16 15:36:35;;;;;;;5.32;1.90;;;;;;;;;;5079298;28;20085;-59
2021/03/16 15:39:19;;;;;;;8.23;2.83;;;;;;;;;;5073606;28;20129;-57
2021/03/16 15:42:04;;;;;;;5.97;2.50;;;;;;;;;;5089612;28;20054;-57
2021/03/16 15:44:47;;;;;;;4.03;1.92;;;;;;;;;;5092669;28;20443;-58
2021/03/16 15:47:32;;;;;;;6.53;2.00;;;;;;;;;;5079085;28;20055;-58
2021/03/16 15:50:16;;;;;;;3.42;1.85;;;;;;;;;;5093738;28;20039;-57